Map

Track Data

SID SEASON NUMBER BASIN SUBBASIN NAME ISO_TIME NATURE LAT LON WMO_WIND WMO_PRES WMO_AGENCY TRACK_TYPE DIST2LAND LANDFALL IFLAG USA_AGENCY USA_ATCF_ID USA_LAT USA_LON USA_RECORD USA_STATUS USA_WIND USA_PRES USA_SSHS USA_R34_NE USA_R34_SE USA_R34_SW USA_R34_NW USA_R50_NE USA_R50_SE USA_R50_SW USA_R50_NW USA_R64_NE USA_R64_SE USA_R64_SW USA_R64_NW USA_POCI USA_ROCI USA_RMW USA_EYE TOKYO_LAT TOKYO_LON TOKYO_GRADE TOKYO_WIND TOKYO_PRES TOKYO_R50_DIR TOKYO_R50_LONG TOKYO_R50_SHORT TOKYO_R30_DIR TOKYO_R30_LONG TOKYO_R30_SHORT TOKYO_LAND CMA_LAT CMA_LON CMA_CAT CMA_WIND CMA_PRES HKO_LAT HKO_LON HKO_CAT HKO_WIND HKO_PRES NEWDELHI_LAT NEWDELHI_LON NEWDELHI_GRADE NEWDELHI_WIND NEWDELHI_PRES NEWDELHI_CI NEWDELHI_DP NEWDELHI_POCI REUNION_LAT REUNION_LON REUNION_TYPE REUNION_WIND REUNION_PRES REUNION_TNUM REUNION_CI REUNION_RMW REUNION_R34_NE REUNION_R34_SE REUNION_R34_SW REUNION_R34_NW REUNION_R50_NE REUNION_R50_SE REUNION_R50_SW REUNION_R50_NW REUNION_R64_NE REUNION_R64_SE REUNION_R64_SW REUNION_R64_NW BOM_LAT BOM_LON BOM_TYPE BOM_WIND BOM_PRES BOM_TNUM BOM_CI BOM_RMW BOM_R34_NE BOM_R34_SE BOM_R34_SW BOM_R34_NW BOM_R50_NE BOM_R50_SE BOM_R50_SW BOM_R50_NW BOM_R64_NE BOM_R64_SE BOM_R64_SW BOM_R64_NW BOM_ROCI BOM_POCI BOM_EYE BOM_POS_METHOD BOM_PRES_METHOD NADI_LAT NADI_LON NADI_CAT NADI_WIND NADI_PRES WELLINGTON_LAT WELLINGTON_LON WELLINGTON_WIND WELLINGTON_PRES DS824_LAT DS824_LON DS824_STAGE DS824_WIND DS824_PRES TD9636_LAT TD9636_LON TD9636_STAGE TD9636_WIND TD9636_PRES TD9635_LAT TD9635_LON TD9635_WIND TD9635_PRES TD9635_ROCI NEUMANN_LAT NEUMANN_LON NEUMANN_CLASS NEUMANN_WIND NEUMANN_PRES MLC_LAT MLC_LON MLC_CLASS MLC_WIND MLC_PRES USA_GUST BOM_GUST BOM_GUST_PER REUNION_GUST REUNION_GUST_PER USA_SEAHGT USA_SEARAD_NE USA_SEARAD_SE USA_SEARAD_SW USA_SEARAD_NW STORM_SPEED STORM_DIR
1997298N06140 1997 101 WP MM LINDA 1997-10-25 00:00:00 NR 6.00000 140.000 main 874 870 O_____________ jtwc_wp WP301997 6.00000 140.000 15 -1 9 287
1997298N06140 1997 101 WP MM LINDA 1997-10-25 03:00:00 NR 6.12498 139.592 main 875 870 P_____________ WP301997 6.12498 139.592 15 -1 9 289
1997298N06140 1997 101 WP MM LINDA 1997-10-25 06:00:00 NR 6.30000 139.100 main 871 864 O_____________ jtwc_wp WP301997 6.30000 139.100 15 -1 12 291
1997298N06140 1997 101 WP MM LINDA 1997-10-25 09:00:00 NR 6.56255 138.472 main 878 871 P_____________ WP301997 6.56255 138.472 15 -1 14 295
1997298N06140 1997 101 WP MM LINDA 1997-10-25 12:00:00 NR 6.90000 137.800 main 886 883 O_____________ jtwc_wp WP301997 6.90000 137.800 15 -1 15 300
1997298N06140 1997 101 WP MM LINDA 1997-10-25 15:00:00 NR 7.29242 137.185 main 913 911 P_____________ WP301997 7.29242 137.185 15 -1 14 304
1997298N06140 1997 101 WP MM LINDA 1997-10-25 18:00:00 NR 7.70000 136.600 main 947 946 O_____________ jtwc_wp WP301997 7.70000 136.600 15 -1 14 303
1997298N06140 1997 101 WP MM LINDA 1997-10-25 21:00:00 NR 8.04997 136.020 main 975 975 P_____________ WP301997 8.04997 136.020 15 -1 13 303
1997298N06140 1997 101 WP MM LINDA 1997-10-26 00:00:00 NR 8.40000 135.500 main 983 942 O_____________ jtwc_wp WP301997 8.40000 135.500 15 -1 12 309
1997298N06140 1997 101 WP MM LINDA 1997-10-26 03:00:00 NR 8.79233 135.092 main 944 907 P_____________ WP301997 8.79233 135.092 15 -1 11 315
1997298N06140 1997 101 WP MM LINDA 1997-10-26 06:00:00 NR 9.20000 134.700 main 907 862 O_____________ jtwc_wp WP301997 9.20000 134.700 15 -1 12 312
1997298N06140 1997 101 WP MM LINDA 1997-10-26 09:00:00 NR 9.60760 134.185 main 862 822 P_____________ WP301997 9.60760 134.185 15 -1 13 309
1997298N06140 1997 101 WP MM LINDA 1997-10-26 12:00:00 NR 10.0000 133.700 main 822 797 O_____________ jtwc_wp WP301997 10.0000 133.700 15 -1 11 314
1997298N06140 1997 101 WP MM LINDA 1997-10-26 15:00:00 NR 10.3874 133.355 main 799 772 P_____________ WP301997 10.3874 133.355 15 -1 9 320
1997298N06140 1997 101 WP MM LINDA 1997-10-26 18:00:00 NR 10.7000 133.100 main 774 758 O_____________ jtwc_wp WP301997 10.7000 133.100 15 -1 7 319
1997298N06140 1997 101 WP MM LINDA 1997-10-26 21:00:00 NR 10.8949 132.907 main 758 740 P_____________ WP301997 10.8949 132.907 15 -1 5 307
1997298N06140 1997 101 WP MM LINDA 1997-10-27 00:00:00 NR 11.0000 132.700 main 740 708 O_____________ jtwc_wp WP301997 11.0000 132.700 15 -1 5 286
1997298N06140 1997 101 WP MM LINDA 1997-10-27 03:00:00 NR 11.0425 132.372 main 708 670 P_____________ WP301997 11.0425 132.372 15 -1 7 278
1997298N06140 1997 101 WP MM LINDA 1997-10-27 06:00:00 NR 11.1000 132.000 main 670 642 O_____________ jtwc_wp WP301997 11.1000 132.000 15 -1 8 290
1997298N06140 1997 101 WP MM LINDA 1997-10-27 09:00:00 NR 11.3000 131.643 main 634 602 P_____________ WP301997 11.3000 131.643 15 -1 8 300
1997298N06140 1997 101 WP MM LINDA 1997-10-27 12:00:00 NR 11.5000 131.300 main 602 571 O_____________ jtwc_wp WP301997 11.5000 131.300 15 -1 7 293
1997298N06140 1997 101 WP MM LINDA 1997-10-27 15:00:00 NR 11.5649 131.007 main 571 538 P_____________ WP301997 11.5649 131.007 15 -1 6 280
1997298N06140 1997 101 WP MM LINDA 1997-10-27 18:00:00 NR 11.6000 130.700 main 538 497 O_____________ jtwc_wp WP301997 11.6000 130.700 15 -1 7 282
1997298N06140 1997 101 WP MM LINDA 1997-10-27 21:00:00 NR 11.7075 130.308 main 497 456 P_____________ WP301997 11.7075 130.308 15 -1 8 284
1997298N06140 1997 101 WP MM LINDA 1997-10-28 00:00:00 NR 11.8000 129.900 main 456 424 O_____________ jtwc_wp WP301997 11.8000 129.900 15 -1 8 278
1997298N06140 1997 101 WP MM LINDA 1997-10-28 03:00:00 NR 11.8149 129.550 main 413 381 P_____________ WP301997 11.8149 129.550 15 -1 7 270
1997298N06140 1997 101 WP MM LINDA 1997-10-28 06:00:00 NR 11.8000 129.200 main 381 339 O_____________ jtwc_wp WP301997 11.8000 129.200 15 -1 7 269
1997298N06140 1997 101 WP MM LINDA 1997-10-28 09:00:00 NR 11.8000 128.807 main 339 297 P_____________ WP301997 11.8000 128.807 15 -1 8 270
1997298N06140 1997 101 WP MM LINDA 1997-10-28 12:00:00 NR 11.8000 128.400 main 297 256 O_____________ jtwc_wp WP301997 11.8000 128.400 15 -1 8 271
1997298N06140 1997 101 WP MM LINDA 1997-10-28 15:00:00 NR 11.8150 127.993 main 256 215 P_____________ WP301997 11.8150 127.993 15 -1 8 270
1997298N06140 1997 101 WP MM LINDA 1997-10-28 18:00:00 NR 11.8000 127.600 main 215 186 O_____________ jtwc_wp WP301997 11.8000 127.600 15 -1 7 265
1997298N06140 1997 101 WP MM LINDA 1997-10-28 21:00:00 NR 11.7450 127.235 main 171 137 P_____________ WP301997 11.7450 127.235 15 -1 7 254
1997298N06140 1997 101 WP MM LINDA 1997-10-29 00:00:00 NR 11.6000 126.900 main 137 93 O_____________ jtwc_wp WP301997 11.6000 126.900 15 -1 7 235
1997298N06140 1997 101 WP MM LINDA 1997-10-29 03:00:00 NR 11.3224 126.608 main 93 54 P_____________ WP301997 11.3224 126.608 15 -1 8 224
1997298N06140 1997 101 WP MM LINDA 1997-10-29 06:00:00 NR 11.0000 126.300 main 54 31 O_____________ jtwc_wp WP301997 11.0000 126.300 15 -1 9 229
1997298N06140 1997 101 WP MM LINDA 1997-10-29 09:00:00 NR 10.7499 125.930 main 35 31 P_____________ WP301997 10.7499 125.930 15 -1 9 238
1997298N06140 1997 101 WP MM LINDA 1997-10-29 12:00:00 NR 10.5000 125.500 main 31 0 O_____________ jtwc_wp WP301997 10.5000 125.500 15 -1 11 237
1997298N06140 1997 101 WP MM LINDA 1997-10-29 15:00:00 NR 10.1699 125.030 main 0 0 P_____________ WP301997 10.1699 125.030 15 -1 12 239
1997298N06140 1997 101 WP MM LINDA 1997-10-29 18:00:00 NR 9.90000 124.500 main 0 0 O_____________ jtwc_wp WP301997 9.90000 124.500 15 -1 11 253
1997298N06140 1997 101 WP MM LINDA 1997-10-29 21:00:00 NR 9.82743 123.923 main 0 0 P_____________ WP301997 9.82743 123.923 15 -1 12 265
1997298N06140 1997 101 WP MM LINDA 1997-10-30 00:00:00 NR 9.80000 123.300 main 10 0 O_____________ jtwc_wp WP301997 9.80000 123.300 15 -1 13 262
1997298N06140 1997 101 WP MM LINDA 1997-10-30 03:00:00 NR 9.65738 122.665 main 0 0 P_____________ WP301997 9.65738 122.665 15 -1 13 257
1997298N06140 1997 101 WP MM LINDA 1997-10-30 06:00:00 NR 9.50000 122.000 main 55 55 O_____________ jtwc_wp WP301997 9.50000 122.000 15 -1 14 259
1997298N06140 1997 101 WP MM LINDA 1997-10-30 09:00:00 NR 9.40006 121.278 main 128 128 P_____________ WP301997 9.40006 121.278 15 -1 14 262
1997298N06140 1997 101 WP MM LINDA 1997-10-30 12:00:00 NR 9.30000 120.600 main 164 141 O_____________ jtwc_wp WP301997 9.30000 120.600 15 -1 12 259
1997298N06140 1997 101 WP MM LINDA 1997-10-30 15:00:00 NR 9.17972 120.085 main 141 117 P_____________ WP301997 9.17972 120.085 15 -1 10 253
1997298N06140 1997 101 WP MM LINDA 1997-10-30 18:00:00 NR 9.00000 119.600 main 117 94 O_____________ jtwc_wp WP301997 9.00000 119.600 15 -1 12 245
1997298N06140 1997 101 WP MM LINDA 1997-10-30 21:00:00 NR 8.68501 119.007 main 94 71 P_____________ WP301997 8.68501 119.007 17 -1 13 243
1997298N06140 1997 101 WP MM LINDA 1997-10-31 00:00:00 NR 8.40000 118.400 main 71 49 O_____________ jtwc_wp WP301997 8.40000 118.400 20 -1 12 252
1997298N06140 1997 101 WP MM LINDA 1997-10-31 03:00:00 NR 8.31225 117.873 main 49 11 P_____________ WP301997 8.31225 117.873 22 -1 11 265
1997298N06140 1997 101 WP MM LINDA 1997-10-31 06:00:00 NR 8.30000 117.300 main 11 0 O_____________ jtwc_wp WP301997 8.30000 117.300 25 -1 13 267
1997298N06140 1997 101 WP MM LINDA 1997-10-31 09:00:00 NR 8.24267 116.550 main 67 77 P_____________ WP301997 8.24267 116.550 27 -1 17 265
1997298N06140 1997 101 WP MM LINDA 1997-10-31 12:00:00 TS 8.16000 115.640 1006 tokyo main 176 176 OO____________ jtwc_wp WP301997 8.20000 115.800 30 -1 8.00000 115.000 2 1006 0 0 0 15 265
1997298N06140 1997 101 WP MM LINDA 1997-10-31 15:00:00 TS 8.10735 115.081 main 221 221 PP____________ WP301997 8.19226 115.228 32 -1 7.93753 114.788 2 1005 0 0 11 258
1997298N06140 1997 101 WP MM LINDA 1997-10-31 18:00:00 TS 7.93750 114.563 1004 tokyo main 257 257 OO_O__________ jtwc_wp WP301997 8.20000 114.700 35 0 7.80000 114.500 2 1004 0 0 0 7.30000 114.200 TD 30 1000 11 252
1997298N06140 1997 101 WP MM LINDA 1997-10-31 21:00:00 TS 7.75793 114.012 main 299 291 PP_P__________ WP301997 8.19991 114.115 37 0 7.56240 114.075 2 1002 0 0 7.26504 113.682 TD 30 1000 12 256
1997298N06140 1997 101 WP MM LINDA 1997-11-01 00:00:00 TS 7.65000 113.400 1000 tokyo main 338 330 OOOO__________ jtwc_wp WP301997 8.20000 113.500 40 0 7.40000 113.500 2 1000 0 0 0 7.50000 113.500 1 29 1002 7.30000 113.100 TD 30 1000 13 267
1997298N06140 1997 101 WP MM LINDA 1997-11-01 03:00:00 TS 7.69821 112.719 main 375 375 PPPP__________ WP301997 8.19977 112.887 42 0 7.47504 112.788 2 998 0 0 7.62782 112.850 1 36 998 7.45503 112.415 TD 32 999 14 279
1997298N06140 1997 101 WP MM LINDA 1997-11-01 06:00:00 TS 7.85333 112.033 35 996 tokyo main 430 430 OOOO__________ jtwc_wp WP301997 8.20000 112.200 45 0 7.70000 112.000 3 35 996 0 9 120 120 0 7.80000 112.300 2 44 995 7.70000 111.700 TS 35 998 14 285
1997298N06140 1997 101 WP MM LINDA 1997-11-01 09:00:00 TS 8.05669 111.402 main 453 398 PPPP__________ WP301997 8.18499 111.380 47 0 7.99969 111.280 3 37 995 0 9 120 120 8.04226 111.900 2 44 995 7.99983 111.050 TS 37 996 14 288
1997298N06140 1997 101 WP MM LINDA 1997-11-01 12:00:00 TS 8.27500 110.725 40 994 tokyo main 391 336 OOOO__________ jtwc_wp WP301997 8.20000 110.500 50 0 8.30000 110.500 3 40 994 0 9 120 120 0 8.30000 111.500 2 44 995 8.30000 110.400 TS 40 994 15 286
1997298N06140 1997 101 WP MM LINDA 1997-11-01 15:00:00 TS 8.45620 109.965 main 327 269 PPPP__________ WP301997 8.27737 109.643 52 0 8.50252 109.573 3 42 993 0 9 125 125 8.51499 110.937 2 46 992 8.52991 109.707 TS 42 992 16 282
1997298N06140 1997 101 WP MM LINDA 1997-11-01 18:00:00 TS 8.60000 109.175 45 992 tokyo main 269 230 OOOO__________ jtwc_wp WP301997 8.40000 108.800 55 0 8.60000 108.600 3 45 992 0 9 130 130 0 8.70000 110.300 3 48 990 8.70000 109.000 TS 45 990 16 280
1997298N06140 1997 101 WP MM LINDA 1997-11-01 21:00:00 TS 8.71723 108.420 main 225 149 PPPP__________ WP301997 8.54992 107.970 55 0 8.56505 107.640 3 47 988 0 9 130 130 8.93159 109.770 3 48 990 8.82237 108.300 TS 47 987 16 276
1997298N06140 1997 101 WP MM LINDA 1997-11-02 00:00:00 TS 8.76000 107.560 50 985 tokyo main 149 89 OOOO__________ jtwc_wp WP301997 8.70000 107.200 55 0 8.50000 106.800 4 50 985 0 9 130 130 0 9.00000 109.000 3 48 990 8.90000 107.600 STS 50 985 17 272
1997298N06140 1997 101 WP MM LINDA 1997-11-02 03:00:00 TS 8.76186 106.712 main 85 55 PPPP__________ WP301997 8.79976 106.527 55 0 8.52721 106.183 4 50 985 0 9 130 130 8.74943 107.746 3 48 990 8.96482 106.907 STS 50 985 16 271
1997298N06140 1997 101 WP MM LINDA 1997-11-02 06:00:00 TS 8.79231 105.954 50 985 tokyo main 55 0 OOOO__________ jtwc_wp WP301997 8.90000 105.900 55 0 8.60000 105.700 4 50 985 0 9 130 130 0 8.30000 106.200 3 48 990 9.00000 106.200 STS 50 985 14 276
1997298N06140 1997 101 WP MM LINDA 1997-11-02 09:00:00 TS 8.90416 105.294 main 0 0 PP_P__________ WP301997 9.04249 105.228 55 0 8.66992 105.227 4 50 985 0 9 130 130 3 9.00006 105.427 STS 47 987 13 280
1997298N06140 1997 101 WP MM LINDA 1997-11-02 12:00:00 TS 9.00000 104.700 50 985 tokyo main 21 21 OO_O__________ jtwc_wp WP301997 9.20000 104.600 55 0 8.80000 104.800 4 50 985 0 9 130 130 0 9.00000 104.700 TS 45 990 11 282
1997298N06140 1997 101 WP MM LINDA 1997-11-02 15:00:00 TS 9.12985 104.194 main 74 74 PP_P__________ WP301997 9.33483 104.077 60 0 9.03491 104.400 4 50 985 0 9 130 130 9.01983 104.105 TS 45 990 10 287
1997298N06140 1997 101 WP MM LINDA 1997-11-02 18:00:00 TS 9.30000 103.733 50 985 tokyo main 131 114 OO_O__________ jtwc_wp WP301997 9.50000 103.600 65 1 9.30000 104.000 4 50 985 0 9 130 130 0 9.10000 103.600 TS 45 990 10 292
1997298N06140 1997 101 WP MM LINDA 1997-11-02 21:00:00 TS 9.49909 103.264 main 116 111 PP_P__________ WP301997 9.73493 103.100 65 1 9.49994 103.565 4 47 987 0 9 130 130 9.26241 103.127 TS 45 990 10 295
1997298N06140 1997 101 WP MM LINDA 1997-11-03 00:00:00 TS 9.73333 102.800 45 990 tokyo main 125 124 OO_O__________ jtwc_wp WP301997 10.0000 102.600 65 1 9.70000 103.100 3 45 990 0 9 130 130 0 9.50000 102.700 TS 45 990 10 298
1997298N06140 1997 101 WP MM LINDA 1997-11-03 03:00:00 TS 9.97995 102.331 main 133 133 PP_P__________ WP301997 10.2499 102.107 65 1 9.93499 102.600 3 45 990 0 9 125 125 9.75496 102.285 TS 45 990 11 300
1997298N06140 1997 101 WP MM LINDA 1997-11-03 06:00:00 TS 10.2667 101.867 45 990 tokyo main 147 147 OO_O__________ jtwc_wp WP301997 10.5000 101.600 65 1 10.2000 102.100 3 45 990 0 9 120 120 0 10.1000 101.900 TS 45 990 11 304
1997298N06140 1997 101 WP MM LINDA 1997-11-03 09:00:00 TS 10.5941 101.417 main 188 156 PP_P__________ WP301997 10.7424 101.065 65 1 10.4624 101.642 3 42 991 0 9 115 115 10.5774 101.542 TS 42 992 11 308
1997298N06140 1997 101 WP MM LINDA 1997-11-03 12:00:00 TS 10.9667 100.967 40 992 tokyo main 154 103 OO_O__________ jtwc_wp WP301997 11.0000 100.500 65 1 10.8000 101.200 3 40 992 0 9 110 110 0 11.1000 101.200 TS 40 994 12 313
1997298N06140 1997 101 WP MM LINDA 1997-11-03 15:00:00 TS 11.3906 100.532 main 93 24 PP_P__________ WP301997 11.2999 99.9150 57 0 11.2920 100.817 3 37 995 0 9 105 105 11.5799 100.865 TS 37 996 13 312
1997298N06140 1997 101 WP MM LINDA 1997-11-03 18:00:00 TS 11.8000 100.009 35 998 tokyo main 24 0 OO_O__________ jtwc_wp WP301997 11.6000 99.3000 50 0 11.8000 100.300 3 35 998 0 9 100 100 0 12.0000 100.500 TS 35 998 13 303
1997298N06140 1997 101 NI BB LINDA 1997-11-03 21:00:00 TS 12.1131 99.3930 main 0 0 PP_P__________ WP301997 11.8500 98.6498 47 0 12.1911 99.4905 3 35 998 0 9 100 100 12.3374 100.087 TS 32 999 13 295
1997298N06140 1997 101 NI BB LINDA 1997-11-04 00:00:00 TS 12.3667 98.7667 main 0 0 OO_O__________ jtwc_wp WP301997 12.1000 98.0000 45 0 12.5000 98.5000 3 35 998 0 9 100 100 0 12.6000 99.6000 TD 30 1000 13 292
1997298N06140 1997 101 NI BB LINDA 1997-11-04 03:00:00 NR 12.5989 98.1744 35 1006 newdelhi main 43 43 P__PO_________ WP301997 12.4075 97.3701 45 0 3 0 9 12.8150 99.0224 TD 30 1000 12.5000 98.0000 CS 35 1006 2.50000 8 13 293
1997298N06140 1997 101 NI BB LINDA 1997-11-04 06:00:00 NR 12.8800 97.5200 35 1006 newdelhi main 101 101 O__OO_________ jtwc_wp WP301997 12.7000 96.8000 45 0 13.0000 98.4000 TD 30 1000 13.0000 97.2000 CS 35 1006 2.50000 8 12 292
1997298N06140 1997 101 NI BB LINDA 1997-11-04 09:00:00 NR 13.0472 97.0381 35 1004 newdelhi main 136 131 P__PO_________ WP301997 12.9223 96.3199 45 0 13.2075 97.7850 TD 30 1000 13.0000 97.0000 CS 35 1004 2.50000 8 11 295
1997298N06140 1997 101 NI BB LINDA 1997-11-04 12:00:00 NR 13.3333 96.5333 35 1004 newdelhi main 176 174 O__OO_________ jtwc_wp WP301997 13.1000 95.9000 45 0 13.4000 97.2000 TD 30 1000 13.5000 96.5000 CS 35 1004 2.50000 8 10 300
1997298N06140 1997 101 NI BB LINDA 1997-11-04 15:00:00 NR 13.5524 96.1367 main 216 216 P__PP_________ WP301997 13.2649 95.4924 45 0 13.5573 96.6849 TD 30 1000 13.8349 96.2327 CS 35 1004 8 8 296
1997298N06140 1997 101 NI BB LINDA 1997-11-04 18:00:00 NR 13.7000 95.7667 35 1004 newdelhi main 226 212 O__OO_________ jtwc_wp WP301997 13.4000 95.1000 45 0 13.7000 96.2000 TD 30 1000 14.0000 96.0000 CS 35 1004 2.50000 8 9 286
1997298N06140 1997 101 NI BB LINDA 1997-11-04 21:00:00 NR 13.7998 95.2697 main 212 201 P__PP_________ WP301997 13.5075 94.6924 47 0 13.8575 95.6850 TD 30 1000 14.0345 95.4317 CS 35 1004 8 9 280
1997298N06140 1997 101 NI BB LINDA 1997-11-05 00:00:00 NR 13.8667 94.8333 35 1004 newdelhi main 202 202 O__OO_________ jtwc_wp WP301997 13.6000 94.3000 50 0 14.0000 95.2000 TD 30 1000 14.0000 95.0000 CS 35 1004 2.50000 8 7 281
1997298N06140 1997 101 NI BB LINDA 1997-11-05 03:00:00 NR 13.9383 94.5633 35 1004 newdelhi main 206 197 P__PO_________ WP301997 13.7000 93.9275 50 0 14.1149 94.7625 TD 30 1000 14.0000 95.0000 CS 35 1004 2.50000 8 5 285
1997298N06140 1997 101 NI BB LINDA 1997-11-05 06:00:00 NR 14.0000 94.3333 35 1004 newdelhi main 201 191 O__OO_________ jtwc_wp WP301997 13.8000 93.6000 50 0 14.2000 94.4000 TD 30 1000 14.0000 95.0000 CS 35 1004 2.50000 8 6 289
1997298N06140 1997 101 NI BB LINDA 1997-11-05 09:00:00 NR 14.1278 93.9940 main 195 183 P__PP_________ WP301997 13.9000 93.3200 50 0 14.2499 94.1274 TD 30 1000 14.2335 94.5346 CS 35 1004 8 7 292
1997298N06140 1997 101 NI BB LINDA 1997-11-05 12:00:00 NR 14.2667 93.6667 35 1004 newdelhi main 183 183 O__OO_________ jtwc_wp WP301997 14.0000 93.1000 50 0 14.3000 93.9000 TD 30 1000 14.5000 94.0000 CS 35 1004 2.50000 8 5 295
1997298N06140 1997 101 NI BB LINDA 1997-11-05 15:00:00 NR 14.3407 93.5158 main 193 184 P__PP_________ WP301997 14.0850 92.9349 50 0 14.4000 93.6500 TD 30 1000 14.5373 93.9623 CS 35 1004 8 3 297
1997298N06140 1997 101 NI BB LINDA 1997-11-05 18:00:00 NR 14.4000 93.4000 35 1004 newdelhi main 189 189 O__OO_________ jtwc_wp WP301997 14.2000 92.8000 50 0 14.5000 93.4000 TD 30 1000 14.5000 94.0000 CS 35 1004 2.50000 8 3 289
1997298N06140 1997 101 NI BB LINDA 1997-11-05 21:00:00 NR 14.4518 93.1801 main 194 194 P__PP_________ WP301997 14.4000 92.6500 50 0 14.5574 93.1575 TD 30 1000 14.3979 93.7328 CS 35 1004 8 5 292
1997298N06140 1997 101 NI BB LINDA 1997-11-06 00:00:00 NR 14.5667 92.9667 35 1004 newdelhi main 201 201 O__OO_________ jtwc_wp WP301997 14.6000 92.5000 50 0 14.6000 92.9000 TD 30 1000 14.5000 93.5000 CS 35 1004 2.50000 8 5 314
1997298N06140 1997 101 NI BB LINDA 1997-11-06 03:00:00 NR 14.7883 92.8142 35 1004 newdelhi main 201 201 P__PO_________ WP301997 14.7225 92.3425 50 0 14.6425 92.6000 TD 30 1000 15.0000 93.5000 CS 35 1004 2.50000 8 5 301
1997298N06140 1997 101 NI BB LINDA 1997-11-06 06:00:00 NR 14.8333 92.5000 35 1004 newdelhi main 226 226 O__OO_________ jtwc_wp WP301997 14.8000 92.2000 50 0 14.7000 92.3000 TD 30 1000 15.0000 93.0000 CS 35 1004 2.50000 8 8 277
1997298N06140 1997 101 NI BB LINDA 1997-11-06 09:00:00 NR 14.8858 92.0450 35 1004 newdelhi main 266 266 P__PO_________ WP301997 14.8575 92.0925 57 0 14.7999 92.0425 TD 30 1000 15.0000 92.0000 CS 35 1004 2.50000 8 6 280
1997298N06140 1997 101 NI BB LINDA 1997-11-06 12:00:00 NR 14.9333 91.9333 35 1004 newdelhi main 275 270 O__OO_________ jtwc_wp WP301997 14.9000 92.0000 65 1 14.9000 91.8000 TD 30 1000 15.0000 92.0000 CS 35 1004 2.50000 8 2 301
1997298N06140 1997 101 NI BB LINDA 1997-11-06 15:00:00 NR 14.9959 91.8527 main 270 270 P__PP_________ WP301997 14.9575 91.9150 65 1 14.9575 91.5500 TD 30 1000 15.0728 92.0931 CS 35 1004 8 2 320
1997298N06140 1997 101 NI BB LINDA 1997-11-06 18:00:00 NR 15.0727 91.8091 35 1004 newdelhi main 276 272 O__OO_________ jtwc_wp WP301997 15.0000 91.8000 65 1 15.0000 91.3000 TD 30 1000 15.2000 92.2000 CS 35 1004 2.50000 8 2 343
1997298N06140 1997 101 NI BB LINDA 1997-11-06 21:00:00 NR 15.1649 91.8017 main 272 272 P__PP_________ WP301997 15.0150 91.6225 65 1 15.0476 91.0500 TD 30 1000 15.3736 92.3568 CS 35 1004 8 2 324
1997298N06140 1997 101 NI BB LINDA 1997-11-07 00:00:00 NR 15.2333 91.6889 35 1004 newdelhi main 282 282 O__OO_________ jtwc_wp WP301997 15.0000 91.4000 65 1 15.1000 90.8000 TD 30 1000 15.5000 92.2000 CS 35 1004 2.50000 8 5 278
1997298N06140 1997 101 NI BB LINDA 1997-11-07 03:00:00 NR 15.2288 91.3175 35 1004 newdelhi main 323 323 P___O_________ WP301997 14.9576 91.1350 62 0 TD 15.5000 91.5000 CS 35 1004 2.50000 8 5 266
1997298N06140 1997 101 NI BB LINDA 1997-11-07 06:00:00 NR 15.2000 91.2000 35 1004 newdelhi main 333 333 O___O_________ jtwc_wp WP301997 14.9000 90.9000 60 0 15.5000 91.5000 CS 35 1004 2.50000 8 2 253
1997298N06140 1997 101 NI BB LINDA 1997-11-07 09:00:00 NR 15.1750 91.1388 35 1004 newdelhi main 343 343 P___O_________ WP301997 14.8499 90.7775 57 0 15.5000 91.5000 CS 35 1004 2.50000 8 1 243
1997298N06140 1997 101 NI BB LINDA 1997-11-07 12:00:00 NR 15.1500 91.1000 35 1004 newdelhi main 343 343 O___O_________ jtwc_wp WP301997 14.8000 90.7000 55 0 15.5000 91.5000 CS 35 1004 2.50000 8 1 239
1997298N06140 1997 101 NI BB LINDA 1997-11-07 15:00:00 NR 15.1213 91.0462 main 357 357 P___P_________ WP301997 14.7425 90.5925 55 0 15.5000 91.5000 CS 35 1004 8 1 243
1997298N06140 1997 101 NI BB LINDA 1997-11-07 18:00:00 NR 15.1000 91.0000 35 1004 newdelhi main 357 357 O___O_________ jtwc_wp WP301997 14.7000 90.5000 55 0 15.5000 91.5000 CS 35 1004 2.50000 8 0 0
1997298N06140 1997 101 NI BB LINDA 1997-11-07 21:00:00 NR 15.0962 91.0186 main 357 357 P___P_________ WP301997 14.6925 90.4350 55 0 15.4999 91.6023 CS 35 1004 8 0 270
1997298N06140 1997 101 NI BB LINDA 1997-11-08 00:00:00 NR 15.1000 90.9500 35 1004 newdelhi main 357 357 O___O_________ jtwc_wp WP301997 14.7000 90.4000 55 0 15.5000 91.5000 CS 35 1004 2.50000 8 3 271
1997298N06140 1997 101 NI BB LINDA 1997-11-08 03:00:00 NR 15.1000 90.7038 35 1006 newdelhi main 388 388 P___O_________ WP301997 14.7000 90.4075 52 0 15.5000 91.0000 CS 35 1006 2.50000 8 5 270
1997298N06140 1997 101 NI BB LINDA 1997-11-08 06:00:00 NR 15.1000 90.4500 35 1006 newdelhi main 409 409 O___O_________ jtwc_wp WP301997 14.7000 90.4000 50 0 15.5000 90.5000 CS 35 1006 2.50000 8 3 269
1997298N06140 1997 101 NI BB LINDA 1997-11-08 09:00:00 NR 15.0925 90.4037 35 1006 newdelhi main 419 419 P___O_________ WP301997 14.6850 90.3075 47 0 15.5000 90.5000 CS 35 1006 2.50000 7 1 270
1997298N06140 1997 101 NI BB LINDA 1997-11-08 12:00:00 NR 15.1000 90.3500 35 1005 newdelhi main 419 419 O___O_________ jtwc_wp WP301997 14.7000 90.2000 45 0 15.5000 90.5000 CS 35 1005 2.50000 7 1 299
1997298N06140 1997 101 NI BB LINDA 1997-11-08 15:00:00 NR 15.1425 90.3138 main 429 427 P___P_________ WP301997 14.7850 90.1275 42 0 15.5000 90.5000 CS 35 1005 7 1 343
1997298N06140 1997 101 NI BB LINDA 1997-11-08 18:00:00 NR 15.2000 90.3000 35 1005 newdelhi main 427 416 O___O_________ jtwc_wp WP301997 14.9000 90.1000 40 0 15.5000 90.5000 CS 35 1005 2.50000 7 1 25
1997298N06140 1997 101 NI BB LINDA 1997-11-08 21:00:00 NR 15.2499 90.3686 main 416 414 P___P_________ WP301997 15.0000 90.1350 37 0 15.4999 90.6023 CS 35 1005 6 1 17
1997298N06140 1997 101 NI BB LINDA 1997-11-09 00:00:00 NR 15.3000 90.3500 35 1005 newdelhi main 414 414 O___O_________ jtwc_wp WP301997 15.1000 90.2000 35 0 15.5000 90.5000 CS 35 1005 2.50000 5 2 290
1997298N06140 1997 101 NI BB LINDA 1997-11-09 03:00:00 NR 15.3286 90.1386 30 1007 newdelhi main 446 433 P___O_________ WP301997 15.2000 90.2425 32 -1 15.5000 90.0000 DD 30 1007 2.00000 5 2 296
1997298N06140 1997 101 NI BB LINDA 1997-11-09 06:00:00 NR 15.3800 90.1800 30 1007 newdelhi main 433 422 O___O_________ jtwc_wp WP301997 15.3000 90.3000 30 -1 15.5000 90.0000 DD 30 1007 2.00000 5 2 49
1997298N06140 1997 101 NI BB LINDA 1997-11-09 09:00:00 NR 15.4333 90.2600 30 1007 newdelhi main 422 400 P___O_________ WP301997 15.4000 90.3900 27 -1 15.5000 90.0000 D 30 1007 1.50000 5 3 69
1997298N06140 1997 101 NI BB LINDA 1997-11-09 12:00:00 NR 15.5000 90.5000 main 400 O_____________ jtwc_wp WP301997 15.5000 90.5000 25 -1 5 74

Digital Typhoon Data and Search

About IBTrACS Database

This database is a web-friendly format of International Best Track Archive for Climate Stewardship (IBTrACS), a global best track data archive curated by NOAA dating back to 1842.

Updated: 2021-10-25